sensor_id;sensor_type;location;lat;lon;timestamp;pressure;altitude;pressure_sealevel;temperature;humidity
15405;BME280;7801;48.124;11.590;2023-07-13T00:00:10;95409.69;;;22.31;85.02
15405;BME280;7801;48.124;11.590;2023-07-13T00:02:37;95406.16;;;22.27;85.50
15405;BME280;7801;48.124;11.590;2023-07-13T00:05:02;95410.44;;;22.28;85.84
15405;BME280;7801;48.124;11.590;2023-07-13T00:07:27;95400.28;;;22.18;86.16
15405;BME280;7801;48.124;11.590;2023-07-13T00:09:53;95407.19;;;22.15;86.11
15405;BME280;7801;48.124;11.590;2023-07-13T00:12:30;95394.88;;;22.18;85.94
15405;BME280;7801;48.124;11.590;2023-07-13T00:14:58;95396.69;;;22.10;85.92
15405;BME280;7801;48.124;11.590;2023-07-13T00:17:24;95391.56;;;22.02;86.47
15405;BME280;7801;48.124;11.590;2023-07-13T00:19:50;95386.94;;;22.02;86.46
15405;BME280;7801;48.124;11.590;2023-07-13T00:22:15;95381.56;;;22.06;86.07
15405;BME280;7801;48.124;11.590;2023-07-13T00:24:41;95393.12;;;22.03;86.14
15405;BME280;7801;48.124;11.590;2023-07-13T00:27:08;95400.81;;;22.01;86.47
15405;BME280;7801;48.124;11.590;2023-07-13T00:29:34;95402.38;;;22.02;86.01
15405;BME280;7801;48.124;11.590;2023-07-13T00:32:01;95393.12;;;22.06;85.57
15405;BME280;7801;48.124;11.590;2023-07-13T00:34:26;95389.66;;;22.06;85.74
15405;BME280;7801;48.124;11.590;2023-07-13T00:36:52;95396.19;;;22.01;86.04
15405;BME280;7801;48.124;11.590;2023-07-13T00:39:17;95399.69;;;22.05;85.60
15405;BME280;7801;48.124;11.590;2023-07-13T00:41:42;95403.16;;;22.06;85.51
15405;BME280;7801;48.124;11.590;2023-07-13T00:44:14;95411.69;;;22.08;85.46
15405;BME280;7801;48.124;11.590;2023-07-13T00:46:39;95405.94;;;22.09;85.76
15405;BME280;7801;48.124;11.590;2023-07-13T00:49:07;95412.53;;;22.12;85.28
15405;BME280;7801;48.124;11.590;2023-07-13T00:51:37;95410.97;;;22.11;85.24
15405;BME280;7801;48.124;11.590;2023-07-13T00:54:07;95402.91;;;22.14;85.01
15405;BME280;7801;48.124;11.590;2023-07-13T00:56:35;95401.72;;;22.12;85.31
15405;BME280;7801;48.124;11.590;2023-07-13T00:59:02;95404.72;;;22.07;85.65
15405;BME280;7801;48.124;11.590;2023-07-13T01:01:28;95411.28;;;22.06;85.52
15405;BME280;7801;48.124;11.590;2023-07-13T01:03:54;95405.84;;;22.02;86.00
15405;BME280;7801;48.124;11.590;2023-07-13T01:06:19;95397.91;;;21.90;86.72
15405;BME280;7801;48.124;11.590;2023-07-13T01:08:45;95390.22;;;21.92;86.36
15405;BME280;7801;48.124;11.590;2023-07-13T01:11:10;95375.97;;;21.95;85.91
15405;BME280;7801;48.124;11.590;2023-07-13T01:13:35;95369.94;;;22.02;85.62
15405;BME280;7801;48.124;11.590;2023-07-13T01:16:05;95373.69;;;21.97;86.08
15405;BME280;7801;48.124;11.590;2023-07-13T01:18:36;95368.97;;;21.90;86.28
15405;BME280;7801;48.124;11.590;2023-07-13T01:21:03;95365.13;;;21.91;86.07
15405;BME280;7801;48.124;11.590;2023-07-13T01:23:31;95358.56;;;21.92;86.02
15405;BME280;7801;48.124;11.590;2023-07-13T01:25:57;95360.56;;;21.95;85.84
15405;BME280;7801;48.124;11.590;2023-07-13T01:28:24;95358.22;;;21.94;85.75
15405;BME280;7801;48.124;11.590;2023-07-13T01:30:52;95348.91;;;21.91;85.69
15405;BME280;7801;48.124;11.590;2023-07-13T01:33:18;95339.59;;;21.89;86.08
15405;BME280;7801;48.124;11.590;2023-07-13T01:35:45;95344.66;;;21.90;86.00
15405;BME280;7801;48.124;11.590;2023-07-13T01:38:13;95346.47;;;21.83;86.94
15405;BME280;7801;48.124;11.590;2023-07-13T01:40:39;95340.75;;;21.88;86.19
15405;BME280;7801;48.124;11.590;2023-07-13T01:43:05;95344.22;;;21.88;85.72
15405;BME280;7801;48.124;11.590;2023-07-13T01:45:30;95339.56;;;21.85;85.59
15405;BME280;7801;48.124;11.590;2023-07-13T01:47:56;95337.28;;;21.87;85.84
15405;BME280;7801;48.124;11.590;2023-07-13T01:50:23;95356.03;;;21.77;86.27
15405;BME280;7801;48.124;11.590;2023-07-13T01:52:48;95352.37;;;21.66;86.86
15405;BME280;7801;48.124;11.590;2023-07-13T01:55:13;95361.69;;;21.68;86.66
15405;BME280;7801;48.124;11.590;2023-07-13T01:57:39;95364.09;;;21.73;86.36
15405;BME280;7801;48.124;11.590;2023-07-13T02:00:06;95367.50;;;21.70;86.57
15405;BME280;7801;48.124;11.590;2023-07-13T02:02:31;95377.72;;;21.80;85.88
15405;BME280;7801;48.124;11.590;2023-07-13T02:04:57;95391.41;;;21.68;86.86
15405;BME280;7801;48.124;11.590;2023-07-13T02:07:22;95394.41;;;21.63;87.41
15405;BME280;7801;48.124;11.590;2023-07-13T02:09:48;95397.34;;;21.54;87.97
15405;BME280;7801;48.124;11.590;2023-07-13T02:12:13;95397.72;;;21.53;88.24
15405;BME280;7801;48.124;11.590;2023-07-13T02:14:38;95398.19;;;21.58;87.64
15405;BME280;7801;48.124;11.590;2023-07-13T02:17:04;95393.16;;;21.57;87.98
15405;BME280;7801;48.124;11.590;2023-07-13T02:19:31;95392.06;;;21.61;87.60
15405;BME280;7801;48.124;11.590;2023-07-13T02:21:58;95392.53;;;21.67;87.03
15405;BME280;7801;48.124;11.590;2023-07-13T02:24:23;95391.81;;;21.70;87.38
15405;BME280;7801;48.124;11.590;2023-07-13T02:26:49;95393.25;;;21.64;87.95
15405;BME280;7801;48.124;11.590;2023-07-13T02:29:14;95392.94;;;21.69;87.04
15405;BME280;7801;48.124;11.590;2023-07-13T02:31:39;95389.00;;;21.63;87.41
15405;BME280;7801;48.124;11.590;2023-07-13T02:34:05;95397.22;;;21.70;86.87
15405;BME280;7801;48.124;11.590;2023-07-13T02:36:31;95402.63;;;21.70;87.32
15405;BME280;7801;48.124;11.590;2023-07-13T02:39:00;95404.59;;;21.73;87.11
15405;BME280;7801;48.124;11.590;2023-07-13T02:41:26;95409.56;;;21.71;87.33
15405;BME280;7801;48.124;11.590;2023-07-13T02:43:51;95412.63;;;21.70;87.53
15405;BME280;7801;48.124;11.590;2023-07-13T02:46:17;95427.22;;;21.65;87.79
15405;BME280;7801;48.124;11.590;2023-07-13T02:48:44;95425.66;;;21.64;87.78
15405;BME280;7801;48.124;11.590;2023-07-13T02:51:10;95438.62;;;21.55;88.57
15405;BME280;7801;48.124;11.590;2023-07-13T02:53:36;95441.50;;;21.66;88.16
15405;BME280;7801;48.124;11.590;2023-07-13T02:56:01;95452.56;;;21.57;89.29
15405;BME280;7801;48.124;11.590;2023-07-13T02:58:27;95443.19;;;21.51;89.61
15405;BME280;7801;48.124;11.590;2023-07-13T03:00:52;95444.88;;;21.59;89.01
15405;BME280;7801;48.124;11.590;2023-07-13T03:03:18;95445.66;;;21.59;89.20
15405;BME280;7801;48.124;11.590;2023-07-13T03:05:44;95453.34;;;21.57;89.19
15405;BME280;7801;48.124;11.590;2023-07-13T03:08:11;95450.03;;;21.45;89.56
15405;BME280;7801;48.124;11.590;2023-07-13T03:10:37;95453.81;;;21.40;89.54
15405;BME280;7801;48.124;11.590;2023-07-13T03:13:05;95452.69;;;21.22;89.47
15405;BME280;7801;48.124;11.590;2023-07-13T03:15:30;95457.38;;;21.25;88.65
15405;BME280;7801;48.124;11.590;2023-07-13T03:17:56;95445.94;;;21.32;87.99
15405;BME280;7801;48.124;11.590;2023-07-13T03:20:21;95447.22;;;21.38;86.80
15405;BME280;7801;48.124;11.590;2023-07-13T03:22:46;95455.19;;;21.31;87.63
15405;BME280;7801;48.124;11.590;2023-07-13T03:25:12;95457.03;;;21.26;87.62
15405;BME280;7801;48.124;11.590;2023-07-13T03:27:37;95462.78;;;21.25;87.81
15405;BME280;7801;48.124;11.590;2023-07-13T03:30:04;95457.75;;;21.23;87.94
15405;BME280;7801;48.124;11.590;2023-07-13T03:32:30;95460.78;;;21.22;87.33
15405;BME280;7801;48.124;11.590;2023-07-13T03:34:56;95451.69;;;21.11;86.84
15405;BME280;7801;48.124;11.590;2023-07-13T03:37:21;95458.16;;;21.06;87.07
15405;BME280;7801;48.124;11.590;2023-07-13T03:39:46;95455.28;;;20.96;87.67
15405;BME280;7801;48.124;11.590;2023-07-13T03:42:12;95470.38;;;20.81;87.38
15405;BME280;7801;48.124;11.590;2023-07-13T03:44:39;95469.81;;;20.72;87.79
15405;BME280;7801;48.124;11.590;2023-07-13T03:47:04;95466.44;;;20.75;87.70
15405;BME280;7801;48.124;11.590;2023-07-13T03:49:31;95468.97;;;20.87;87.71
15405;BME280;7801;48.124;11.590;2023-07-13T03:51:56;95468.25;;;20.90;87.59
15405;BME280;7801;48.124;11.590;2023-07-13T03:54:22;95471.94;;;21.01;87.02
15405;BME280;7801;48.124;11.590;2023-07-13T03:56:47;95474.78;;;21.08;86.60
15405;BME280;7801;48.124;11.590;2023-07-13T03:59:12;95472.50;;;21.10;86.84
15405;BME280;7801;48.124;11.590;2023-07-13T04:01:38;95467.91;;;21.11;86.22
15405;BME280;7801;48.124;11.590;2023-07-13T04:04:04;95474.72;;;21.24;85.86
15405;BME280;7801;48.124;11.590;2023-07-13T04:06:30;95479.69;;;21.22;86.37
15405;BME280;7801;48.124;11.590;2023-07-13T04:08:59;95474.78;;;21.27;86.01
15405;BME280;7801;48.124;11.590;2023-07-13T04:11:27;95480.31;;;21.35;85.86
15405;BME280;7801;48.124;11.590;2023-07-13T04:13:53;95485.66;;;21.31;85.65
15405;BME280;7801;48.124;11.590;2023-07-13T04:16:19;95478.06;;;21.37;85.23
15405;BME280;7801;48.124;11.590;2023-07-13T04:18:46;95476.91;;;21.38;84.93
15405;BME280;7801;48.124;11.590;2023-07-13T04:21:12;95486.00;;;21.30;84.87
15405;BME280;7801;48.124;11.590;2023-07-13T04:23:38;95482.75;;;21.20;85.11
15405;BME280;7801;48.124;11.590;2023-07-13T04:26:03;95485.88;;;21.22;84.95
15405;BME280;7801;48.124;11.590;2023-07-13T04:28:29;95493.97;;;21.22;85.14
15405;BME280;7801;48.124;11.590;2023-07-13T04:30:56;95485.00;;;21.18;84.99
15405;BME280;7801;48.124;11.590;2023-07-13T04:33:22;95486.06;;;21.14;85.37
15405;BME280;7801;48.124;11.590;2023-07-13T04:35:51;95491.13;;;21.15;85.52
15405;BME280;7801;48.124;11.590;2023-07-13T04:38:28;95494.59;;;21.16;85.02
15405;BME280;7801;48.124;11.590;2023-07-13T04:40:56;95493.53;;;21.20;85.25
15405;BME280;7801;48.124;11.590;2023-07-13T04:43:22;95495.44;;;21.20;85.01
15405;BME280;7801;48.124;11.590;2023-07-13T04:45:48;95500.50;;;21.21;84.81
15405;BME280;7801;48.124;11.590;2023-07-13T04:48:13;95504.19;;;21.13;85.23
15405;BME280;7801;48.124;11.590;2023-07-13T04:50:38;95499.62;;;21.17;84.78
15405;BME280;7801;48.124;11.590;2023-07-13T04:53:04;95507.16;;;21.08;85.45
15405;BME280;7801;48.124;11.590;2023-07-13T04:55:31;95505.38;;;21.16;85.27
15405;BME280;7801;48.124;11.590;2023-07-13T04:57:57;95499.22;;;21.15;85.21
15405;BME280;7801;48.124;11.590;2023-07-13T05:00:24;95501.91;;;21.15;85.56
15405;BME280;7801;48.124;11.590;2023-07-13T05:02:50;95512.78;;;21.19;85.10
15405;BME280;7801;48.124;11.590;2023-07-13T05:05:15;95510.16;;;21.22;85.21
15405;BME280;7801;48.124;11.590;2023-07-13T05:07:40;95521.78;;;21.07;85.14
15405;BME280;7801;48.124;11.590;2023-07-13T05:10:06;95517.38;;;20.99;85.69
15405;BME280;7801;48.124;11.590;2023-07-13T05:12:32;95517.16;;;21.08;85.84
15405;BME280;7801;48.124;11.590;2023-07-13T05:14:58;95524.84;;;21.06;85.62
15405;BME280;7801;48.124;11.590;2023-07-13T05:17:24;95528.16;;;20.99;85.75
15405;BME280;7801;48.124;11.590;2023-07-13T05:19:49;95525.53;;;21.03;86.10
15405;BME280;7801;48.124;11.590;2023-07-13T05:22:15;95516.19;;;20.97;86.29
15405;BME280;7801;48.124;11.590;2023-07-13T05:24:40;95514.47;;;21.08;85.44
15405;BME280;7801;48.124;11.590;2023-07-13T05:27:05;95515.59;;;21.07;85.22
15405;BME280;7801;48.124;11.590;2023-07-13T05:29:31;95511.69;;;21.04;85.20
15405;BME280;7801;48.124;11.590;2023-07-13T05:31:56;95519.87;;;21.08;85.08
15405;BME280;7801;48.124;11.590;2023-07-13T05:34:22;95520.22;;;21.06;85.30
15405;BME280;7801;48.124;11.590;2023-07-13T05:36:47;95531.44;;;21.08;85.09
15405;BME280;7801;48.124;11.590;2023-07-13T05:39:13;95528.59;;;21.01;85.21
15405;BME280;7801;48.124;11.590;2023-07-13T05:41:39;95534.75;;;21.02;85.29
15405;BME280;7801;48.124;11.590;2023-07-13T05:44:04;95535.53;;;21.02;85.20
15405;BME280;7801;48.124;11.590;2023-07-13T05:46:29;95536.13;;;21.11;84.77
15405;BME280;7801;48.124;11.590;2023-07-13T05:48:55;95538.12;;;21.14;84.88
15405;BME280;7801;48.124;11.590;2023-07-13T05:51:21;95527.34;;;21.14;84.70
15405;BME280;7801;48.124;11.590;2023-07-13T05:53:46;95526.03;;;21.08;85.06
15405;BME280;7801;48.124;11.590;2023-07-13T05:56:11;95530.03;;;20.95;85.50
15405;BME280;7801;48.124;11.590;2023-07-13T05:58:37;95529.81;;;21.04;85.60
15405;BME280;7801;48.124;11.590;2023-07-13T06:01:09;95533.09;;;21.13;85.50
15405;BME280;7801;48.124;11.590;2023-07-13T06:03:35;95530.03;;;21.14;85.27
15405;BME280;7801;48.124;11.590;2023-07-13T06:09:06;95531.94;;;21.14;85.60
15405;BME280;7801;48.124;11.590;2023-07-13T06:11:32;95538.91;;;21.15;85.21
15405;BME280;7801;48.124;11.590;2023-07-13T06:13:57;95531.16;;;21.13;85.42
15405;BME280;7801;48.124;11.590;2023-07-13T06:16:22;95548.50;;;21.12;84.79
15405;BME280;7801;48.124;11.590;2023-07-13T06:18:48;95548.34;;;21.05;85.62
15405;BME280;7801;48.124;11.590;2023-07-13T06:21:16;95551.09;;;21.09;85.47
15405;BME280;7801;48.124;11.590;2023-07-13T06:23:42;95551.09;;;21.09;85.23
15405;BME280;7801;48.124;11.590;2023-07-13T06:26:09;95558.94;;;21.14;85.22
15405;BME280;7801;48.124;11.590;2023-07-13T06:28:35;95556.47;;;21.24;84.24
15405;BME280;7801;48.124;11.590;2023-07-13T06:31:01;95557.56;;;21.04;85.59
15405;BME280;7801;48.124;11.590;2023-07-13T06:33:26;95553.31;;;21.03;85.86
15405;BME280;7801;48.124;11.590;2023-07-13T06:35:57;95564.28;;;21.49;83.22
15405;BME280;7801;48.124;11.590;2023-07-13T06:38:25;95571.09;;;21.43;83.19
15405;BME280;7801;48.124;11.590;2023-07-13T06:40:51;95575.31;;;21.63;82.21
15405;BME280;7801;48.124;11.590;2023-07-13T06:43:16;95571.75;;;21.01;83.99
15405;BME280;7801;48.124;11.590;2023-07-13T06:45:45;95582.03;;;21.31;83.47
15405;BME280;7801;48.124;11.590;2023-07-13T06:48:13;95580.03;;;21.27;84.02
15405;BME280;7801;48.124;11.590;2023-07-13T06:50:39;95578.47;;;21.26;84.43
15405;BME280;7801;48.124;11.590;2023-07-13T06:53:04;95589.94;;;21.04;86.05
15405;BME280;7801;48.124;11.590;2023-07-13T06:55:30;95590.97;;;21.15;85.99
15405;BME280;7801;48.124;11.590;2023-07-13T06:57:55;95588.25;;;21.15;85.05
15405;BME280;7801;48.124;11.590;2023-07-13T07:00:21;95589.81;;;21.16;85.02
15405;BME280;7801;48.124;11.590;2023-07-13T07:02:46;95588.41;;;21.22;84.72
15405;BME280;7801;48.124;11.590;2023-07-13T07:05:11;95588.06;;;21.24;84.95
15405;BME280;7801;48.124;11.590;2023-07-13T07:07:37;95584.75;;;21.31;84.87
15405;BME280;7801;48.124;11.590;2023-07-13T07:10:03;95592.22;;;21.37;84.62
15405;BME280;7801;48.124;11.590;2023-07-13T07:12:28;95596.25;;;21.47;84.67
15405;BME280;7801;48.124;11.590;2023-07-13T07:14:54;95593.81;;;21.42;84.02
15405;BME280;7801;48.124;11.590;2023-07-13T07:17:19;95596.03;;;21.55;83.34
15405;BME280;7801;48.124;11.590;2023-07-13T07:19:44;95592.31;;;21.64;82.03
15405;BME280;7801;48.124;11.590;2023-07-13T07:22:09;95594.66;;;21.65;81.15
15405;BME280;7801;48.124;11.590;2023-07-13T07:24:35;95597.78;;;21.67;80.45
15405;BME280;7801;48.124;11.590;2023-07-13T07:27:00;95586.19;;;21.67;80.12
15405;BME280;7801;48.124;11.590;2023-07-13T07:29:26;95585.50;;;21.70;79.98
15405;BME280;7801;48.124;11.590;2023-07-13T07:31:52;95588.91;;;21.67;79.22
15405;BME280;7801;48.124;11.590;2023-07-13T07:34:18;95592.53;;;21.74;80.34
15405;BME280;7801;48.124;11.590;2023-07-13T07:36:43;95606.94;;;22.01;77.90
15405;BME280;7801;48.124;11.590;2023-07-13T07:39:08;95613.53;;;22.04;76.79
15405;BME280;7801;48.124;11.590;2023-07-13T07:41:34;95605.59;;;21.72;77.27
15405;BME280;7801;48.124;11.590;2023-07-13T07:43:59;95606.66;;;21.68;76.67
15405;BME280;7801;48.124;11.590;2023-07-13T07:46:25;95604.19;;;21.78;76.32
15405;BME280;7801;48.124;11.590;2023-07-13T07:48:50;95614.69;;;21.64;76.13
15405;BME280;7801;48.124;11.590;2023-07-13T07:51:15;95622.25;;;21.36;77.13
15405;BME280;7801;48.124;11.590;2023-07-13T07:53:41;95629.28;;;21.79;76.32
15405;BME280;7801;48.124;11.590;2023-07-13T07:56:06;95633.72;;;21.90;75.42
15405;BME280;7801;48.124;11.590;2023-07-13T07:58:32;95632.94;;;21.90;75.41
15405;BME280;7801;48.124;11.590;2023-07-13T08:01:04;95636.31;;;21.64;75.16
15405;BME280;7801;48.124;11.590;2023-07-13T08:03:30;95637.31;;;21.56;76.42
15405;BME280;7801;48.124;11.590;2023-07-13T08:05:55;95634.09;;;21.70;75.31
15405;BME280;7801;48.124;11.590;2023-07-13T08:08:20;95643.28;;;21.46;76.43
15405;BME280;7801;48.124;11.590;2023-07-13T08:10:46;95654.50;;;21.48;75.80
15405;BME280;7801;48.124;11.590;2023-07-13T08:13:11;95657.19;;;21.48;76.51
15405;BME280;7801;48.124;11.590;2023-07-13T08:15:37;95655.06;;;21.38;76.74
15405;BME280;7801;48.124;11.590;2023-07-13T08:18:02;95651.28;;;21.23;76.11
15405;BME280;7801;48.124;11.590;2023-07-13T08:20:28;95652.88;;;21.08;75.82
15405;BME280;7801;48.124;11.590;2023-07-13T08:22:53;95655.22;;;21.10;75.42
15405;BME280;7801;48.124;11.590;2023-07-13T08:25:19;95658.59;;;21.22;74.89
15405;BME280;7801;48.124;11.590;2023-07-13T08:27:45;95655.81;;;21.19;74.13
15405;BME280;7801;48.124;11.590;2023-07-13T08:30:11;95660.06;;;21.20;73.76
15405;BME280;7801;48.124;11.590;2023-07-13T08:32:36;95654.84;;;21.27;75.60
15405;BME280;7801;48.124;11.590;2023-07-13T08:35:01;95658.34;;;21.47;74.75
15405;BME280;7801;48.124;11.590;2023-07-13T08:37:27;95653.94;;;21.58;73.63
15405;BME280;7801;48.124;11.590;2023-07-13T08:39:52;95672.25;;;21.49;73.31
15405;BME280;7801;48.124;11.590;2023-07-13T08:45:08;95670.78;;;21.71;73.09
15405;BME280;7801;48.124;11.590;2023-07-13T08:47:40;95675.97;;;21.79;72.72
15405;BME280;7801;48.124;11.590;2023-07-13T08:50:12;95678.53;;;21.91;71.45
15405;BME280;7801;48.124;11.590;2023-07-13T08:52:40;95677.56;;;21.61;71.62
15405;BME280;7801;48.124;11.590;2023-07-13T08:55:15;95676.69;;;21.57;72.75
15405;BME280;7801;48.124;11.590;2023-07-13T08:57:42;95677.53;;;21.80;71.77
15405;BME280;7801;48.124;11.590;2023-07-13T09:00:10;95679.75;;;21.75;71.66
15405;BME280;7801;48.124;11.590;2023-07-13T09:02:55;95682.44;;;21.94;70.64
15405;BME280;7801;48.124;11.590;2023-07-13T09:08:09;95682.09;;;21.76;67.82
15405;BME280;7801;48.124;11.590;2023-07-13T09:10:46;95693.78;;;21.10;65.68
15405;BME280;7801;48.124;11.590;2023-07-13T09:13:27;95684.06;;;20.90;68.39
15405;BME280;7801;48.124;11.590;2023-07-13T09:15:59;95686.56;;;20.83;71.11
15405;BME280;7801;48.124;11.590;2023-07-13T09:18:40;95672.50;;;20.74;70.60
15405;BME280;7801;48.124;11.590;2023-07-13T09:21:26;95678.50;;;20.51;69.80
15405;BME280;7801;48.124;11.590;2023-07-13T09:23:53;95675.91;;;20.71;71.18
15405;BME280;7801;48.124;11.590;2023-07-13T09:26:23;95674.31;;;20.85;71.66
15405;BME280;7801;48.124;11.590;2023-07-13T09:28:59;95676.03;;;20.93;69.47
15405;BME280;7801;48.124;11.590;2023-07-13T09:33:56;95676.34;;;20.57;68.23
15405;BME280;7801;48.124;11.590;2023-07-13T09:36:28;95674.00;;;20.55;65.03
15405;BME280;7801;48.124;11.590;2023-07-13T09:42:12;95682.25;;;20.47;63.25
15405;BME280;7801;48.124;11.590;2023-07-13T09:44:53;95690.38;;;20.35;62.09
15405;BME280;7801;48.124;11.590;2023-07-13T09:47:24;95693.19;;;20.38;64.14
15405;BME280;7801;48.124;11.590;2023-07-13T09:49:56;95691.38;;;20.42;66.52
15405;BME280;7801;48.124;11.590;2023-07-13T09:52:24;95682.78;;;20.37;65.13
15405;BME280;7801;48.124;11.590;2023-07-13T09:54:50;95673.94;;;20.24;62.80
15405;BME280;7801;48.124;11.590;2023-07-13T09:57:18;95683.81;;;20.20;63.69
15405;BME280;7801;48.124;11.590;2023-07-13T09:59:47;95690.03;;;20.36;66.00
15405;BME280;7801;48.124;11.590;2023-07-13T10:02:36;95681.56;;;20.22;67.83
15405;BME280;7801;48.124;11.590;2023-07-13T10:05:11;95683.03;;;20.19;67.60
15405;BME280;7801;48.124;11.590;2023-07-13T10:07:40;95675.25;;;20.30;68.11
15405;BME280;7801;48.124;11.590;2023-07-13T10:10:15;95678.38;;;20.32;67.09
15405;BME280;7801;48.124;11.590;2023-07-13T10:12:41;95686.84;;;20.46;68.38
15405;BME280;7801;48.124;11.590;2023-07-13T10:15:14;95687.28;;;20.80;70.63
15405;BME280;7801;48.124;11.590;2023-07-13T10:17:41;95689.72;;;20.69;66.95
15405;BME280;7801;48.124;11.590;2023-07-13T10:20:07;95694.50;;;20.44;65.83
15405;BME280;7801;48.124;11.590;2023-07-13T10:22:44;95689.81;;;20.73;68.41
15405;BME280;7801;48.124;11.590;2023-07-13T10:25:17;95692.75;;;20.83;67.00
15405;BME280;7801;48.124;11.590;2023-07-13T10:27:43;95694.37;;;21.04;65.82
15405;BME280;7801;48.124;11.590;2023-07-13T10:32:38;95695.84;;;21.33;62.75
15405;BME280;7801;48.124;11.590;2023-07-13T10:35:04;95686.13;;;21.47;60.33
15405;BME280;7801;48.124;11.590;2023-07-13T10:37:41;95692.91;;;21.57;61.30
15405;BME280;7801;48.124;11.590;2023-07-13T10:40:16;95704.81;;;21.56;58.38
15405;BME280;7801;48.124;11.590;2023-07-13T10:42:45;95700.41;;;21.67;55.12
15405;BME280;7801;48.124;11.590;2023-07-13T10:45:15;95700.28;;;21.79;57.03
15405;BME280;7801;48.124;11.590;2023-07-13T10:47:43;95696.59;;;21.68;54.32
15405;BME280;7801;48.124;11.590;2023-07-13T10:50:17;95703.47;;;21.66;57.93
15405;BME280;7801;48.124;11.590;2023-07-13T10:52:47;95699.94;;;21.81;56.92
15405;BME280;7801;48.124;11.590;2023-07-13T10:58:18;95694.72;;;21.91;56.71
15405;BME280;7801;48.124;11.590;2023-07-13T11:01:17;95702.75;;;21.88;54.72
15405;BME280;7801;48.124;11.590;2023-07-13T11:18:45;95698.94;;;21.70;59.99
15405;BME280;7801;48.124;11.590;2023-07-13T11:21:21;95699.63;;;21.67;58.44
15405;BME280;7801;48.124;11.590;2023-07-13T11:24:14;95710.87;;;21.88;62.23
15405;BME280;7801;48.124;11.590;2023-07-13T11:29:25;95698.88;;;22.05;58.19
15405;BME280;7801;48.124;11.590;2023-07-13T11:31:52;95688.69;;;21.98;58.68
15405;BME280;7801;48.124;11.590;2023-07-13T11:34:26;95701.19;;;22.03;61.36
15405;BME280;7801;48.124;11.590;2023-07-13T11:36:52;95704.06;;;21.94;56.89
15405;BME280;7801;48.124;11.590;2023-07-13T11:39:21;95696.88;;;22.21;62.31
15405;BME280;7801;48.124;11.590;2023-07-13T11:41:54;95693.53;;;22.08;60.88
15405;BME280;7801;48.124;11.590;2023-07-13T11:44:24;95690.72;;;22.24;60.79
15405;BME280;7801;48.124;11.590;2023-07-13T11:46:51;95677.78;;;22.33;61.69
15405;BME280;7801;48.124;11.590;2023-07-13T11:49:22;95669.72;;;22.37;59.79
15405;BME280;7801;48.124;11.590;2023-07-13T11:51:48;95668.22;;;22.39;61.92
15405;BME280;7801;48.124;11.590;2023-07-13T11:54:51;95664.75;;;22.39;59.62
15405;BME280;7801;48.124;11.590;2023-07-13T11:57:27;95668.22;;;22.39;61.21
15405;BME280;7801;48.124;11.590;2023-07-13T11:59:54;95662.03;;;22.16;57.19
15405;BME280;7801;48.124;11.590;2023-07-13T12:02:37;95663.41;;;22.29;60.83
15405;BME280;7801;48.124;11.590;2023-07-13T12:05:04;95650.19;;;22.24;56.45
15405;BME280;7801;48.124;11.590;2023-07-13T12:07:32;95657.13;;;22.44;59.05
15405;BME280;7801;48.124;11.590;2023-07-13T12:10:27;95653.88;;;22.35;59.20
15405;BME280;7801;48.124;11.590;2023-07-13T12:15:27;95662.53;;;22.44;57.28
15405;BME280;7801;48.124;11.590;2023-07-13T12:17:54;95653.88;;;22.35;55.16
15405;BME280;7801;48.124;11.590;2023-07-13T12:20:27;95658.56;;;22.38;55.04
15405;BME280;7801;48.124;11.590;2023-07-13T12:22:56;95649.72;;;22.41;58.28
15405;BME280;7801;48.124;11.590;2023-07-13T12:25:28;95646.81;;;22.53;58.03
15405;BME280;7801;48.124;11.590;2023-07-13T12:27:55;95650.25;;;22.50;54.81
15405;BME280;7801;48.124;11.590;2023-07-13T12:30:28;95653.16;;;22.61;55.89
15405;BME280;7801;48.124;11.590;2023-07-13T12:32:58;95652.56;;;22.75;58.57
15405;BME280;7801;48.124;11.590;2023-07-13T12:35:24;95643.31;;;22.76;57.91
15405;BME280;7801;48.124;11.590;2023-07-13T12:37:51;95653.00;;;22.77;57.35
15405;BME280;7801;48.124;11.590;2023-07-13T12:40:18;95645.25;;;22.75;56.18
15405;BME280;7801;48.124;11.590;2023-07-13T12:42:46;95646.22;;;22.63;55.64
15405;BME280;7801;48.124;11.590;2023-07-13T12:45:22;95651.94;;;22.58;58.44
15405;BME280;7801;48.124;11.590;2023-07-13T12:47:52;95644.41;;;22.71;57.69
15405;BME280;7801;48.124;11.590;2023-07-13T12:50:21;95644.13;;;22.53;56.09
15405;BME280;7801;48.124;11.590;2023-07-13T12:53:02;95639.84;;;22.52;55.90
15405;BME280;7801;48.124;11.590;2023-07-13T12:55:29;95637.56;;;22.54;58.53
15405;BME280;7801;48.124;11.590;2023-07-13T12:57:58;95635.81;;;22.66;59.76
15405;BME280;7801;48.124;11.590;2023-07-13T13:02:58;95631.16;;;22.62;58.09
15405;BME280;7801;48.124;11.590;2023-07-13T13:05:29;95627.47;;;22.51;55.34
15405;BME280;7801;48.124;11.590;2023-07-13T13:07:55;95622.53;;;22.57;58.37
15405;BME280;7801;48.124;11.590;2023-07-13T13:10:20;95628.69;;;22.54;57.72
15405;BME280;7801;48.124;11.590;2023-07-13T13:12:46;95616.16;;;22.69;58.69
15405;BME280;7801;48.124;11.590;2023-07-13T13:15:12;95620.78;;;22.68;58.21
15405;BME280;7801;48.124;11.590;2023-07-13T13:17:38;95616.25;;;22.76;54.92
15405;BME280;7801;48.124;11.590;2023-07-13T13:20:18;95617.34;;;22.71;55.84
15405;BME280;7801;48.124;11.590;2023-07-13T13:22:44;95622.75;;;22.71;56.64
15405;BME280;7801;48.124;11.590;2023-07-13T13:25:14;95628.13;;;22.68;54.43
15405;BME280;7801;48.124;11.590;2023-07-13T13:27:41;95609.72;;;22.77;56.87
15405;BME280;7801;48.124;11.590;2023-07-13T13:30:17;95623.38;;;22.84;57.97
15405;BME280;7801;48.124;11.590;2023-07-13T13:32:45;95618.47;;;22.93;57.11
15405;BME280;7801;48.124;11.590;2023-07-13T13:35:19;95614.91;;;22.85;54.71
15405;BME280;7801;48.124;11.590;2023-07-13T13:37:46;95622.97;;;22.82;55.04
15405;BME280;7801;48.124;11.590;2023-07-13T13:40:18;95622.62;;;22.87;55.28
15405;BME280;7801;48.124;11.590;2023-07-13T13:42:44;95622.62;;;22.87;53.47
15405;BME280;7801;48.124;11.590;2023-07-13T13:45:10;95626.19;;;22.91;55.26